createdAt,value
2022-08-19T00:02:26.717Z,14.52
2022-08-19T00:04:57.038Z,13.93
2022-08-19T00:07:28.417Z,18.63
2022-08-19T00:09:58.543Z,15.05
2022-08-19T00:12:29.155Z,13.13
2022-08-19T00:14:59.700Z,16.30
2022-08-19T00:17:29.722Z,14.68
2022-08-19T00:20:00.461Z,19.20
2022-08-19T00:22:32.483Z,18.98
2022-08-19T00:25:02.805Z,13.82
2022-08-19T00:27:34.283Z,18.15
2022-08-19T00:30:05.555Z,16.10
2022-08-19T00:32:36.363Z,17.50
2022-08-19T00:35:07.389Z,17.08
2022-08-19T00:37:39.083Z,15.25
2022-08-19T00:40:10.385Z,15.45
2022-08-19T00:42:40.217Z,15.90
2022-08-19T00:45:15.875Z,19.50
2022-08-19T00:47:46.595Z,15.23
2022-08-19T00:50:20.632Z,16.00
2022-08-19T00:52:53.078Z,16.98
2022-08-19T00:55:26.151Z,17.33
2022-08-19T00:58:00.349Z,15.33
2022-08-19T01:00:31.941Z,17.35
2022-08-19T01:03:01.795Z,22.83
2022-08-19T01:05:32.099Z,14.52
2022-08-19T01:08:06.799Z,16.20
2022-08-19T01:10:44.155Z,15.73
2022-08-19T01:13:16.380Z,16.83
2022-08-19T01:15:50.102Z,23.10
2022-08-19T01:18:22.368Z,15.32
2022-08-19T01:20:54.208Z,19.08
2022-08-19T01:23:43.408Z,15.45
2022-08-19T01:26:16.491Z,19.35
2022-08-19T01:28:49.680Z,15.15
2022-08-19T01:31:27.117Z,16.25
2022-08-19T01:33:59.159Z,16.33
2022-08-19T01:36:32.923Z,14.63
2022-08-19T01:39:09.981Z,17.75
2022-08-19T01:41:40.030Z,19.15
2022-08-19T01:44:18.501Z,15.23
2022-08-19T01:46:50.369Z,14.27
2022-08-19T01:49:24.050Z,14.25
2022-08-19T01:54:27.805Z,20.65
2022-08-19T01:57:01.531Z,18.58
2022-08-19T01:59:32.676Z,17.13
2022-08-19T02:02:02.757Z,15.90
2022-08-19T02:04:32.553Z,15.38
2022-08-19T02:07:02.802Z,17.15
2022-08-19T02:09:34.655Z,15.65
2022-08-19T02:12:05.906Z,21.20
2022-08-19T02:14:36.287Z,15.80
2022-08-19T02:17:06.732Z,15.20
2022-08-19T02:19:36.628Z,18.02
2022-08-19T02:22:10.979Z,17.95
2022-08-19T02:24:42.434Z,21.20
2022-08-19T02:27:12.555Z,17.15
2022-08-19T02:29:43.057Z,15.85
2022-08-19T02:32:13.081Z,16.17
2022-08-19T02:34:43.652Z,18.15
2022-08-19T02:37:35.091Z,17.90
2022-08-19T02:40:12.492Z,21.42
2022-08-19T02:42:44.106Z,19.33
2022-08-19T02:45:15.035Z,16.90
2022-08-19T02:47:45.024Z,15.27
2022-08-19T02:50:15.654Z,16.25
2022-08-19T02:52:46.411Z,19.55
2022-08-19T02:55:17.843Z,14.52
2022-08-19T02:57:47.791Z,22.60
2022-08-19T03:00:18.664Z,16.98
2022-08-19T03:02:49.791Z,16.25
2022-08-19T03:05:20.747Z,14.98
2022-08-19T03:08:13.298Z,19.52
2022-08-19T03:10:47.934Z,19.75
2022-08-19T03:13:20.144Z,17.50
2022-08-19T03:15:50.734Z,18.88
2022-08-19T03:18:20.621Z,17.35
2022-08-19T03:20:55.612Z,18.23
2022-08-19T03:23:26.033Z,20.27
2022-08-19T03:26:03.811Z,16.50
2022-08-19T03:28:51.365Z,16.77
2022-08-19T03:31:43.900Z,20.10
2022-08-19T03:34:16.788Z,23.55
2022-08-19T03:36:49.275Z,21.13
2022-08-19T03:39:19.556Z,16.58
2022-08-19T03:42:29.200Z,19.35
2022-08-19T03:44:43.354Z,22.70
2022-08-19T03:47:17.081Z,22.05
2022-08-19T03:49:47.338Z,18.98
2022-08-19T03:52:17.321Z,20.50
2022-08-19T03:54:47.178Z,20.23
2022-08-19T03:57:18.550Z,17.20
2022-08-19T03:59:48.606Z,22.02
2022-08-19T04:02:18.496Z,20.40
2022-08-19T04:04:48.692Z,19.20
2022-08-19T04:07:19.163Z,17.25
2022-08-19T04:09:49.297Z,20.08
2022-08-19T04:12:21.825Z,24.67
2022-08-19T04:14:52.393Z,27.45
2022-08-19T04:17:22.350Z,28.52
2022-08-19T04:19:52.390Z,26.17
2022-08-19T04:22:22.360Z,23.60
2022-08-19T04:24:52.269Z,24.08
2022-08-19T04:27:23.569Z,17.73
2022-08-19T04:29:53.570Z,25.88
2022-08-19T04:32:23.687Z,21.77
2022-08-19T04:35:01.208Z,15.02
2022-08-19T04:37:35.014Z,19.80
2022-08-19T04:40:25.340Z,19.65
2022-08-19T04:42:57.423Z,25.45
2022-08-19T04:45:27.482Z,19.88
2022-08-19T04:48:26.490Z,16.92
2022-08-19T04:50:49.265Z,16.92
2022-08-19T04:53:19.080Z,16.42
2022-08-19T04:55:48.959Z,14.77
2022-08-19T04:58:20.507Z,17.17
2022-08-19T05:00:50.620Z,21.00
2022-08-19T05:03:21.346Z,19.83
2022-08-19T05:05:51.385Z,17.45
2022-08-19T05:08:31.362Z,21.65
2022-08-19T05:11:02.377Z,17.45
2022-08-19T05:13:34.128Z,20.70
2022-08-19T05:16:05.911Z,20.38
2022-08-19T05:19:04.516Z,29.33
2022-08-19T05:21:53.642Z,23.95
2022-08-19T05:24:25.217Z,23.10
2022-08-19T05:26:58.958Z,21.52
2022-08-19T05:29:36.419Z,32.05
2022-08-19T05:32:09.809Z,21.88
2022-08-19T05:34:40.576Z,21.33
2022-08-19T05:37:10.701Z,16.20
2022-08-19T05:39:41.436Z,18.98
2022-08-19T05:42:14.142Z,21.75
2022-08-19T05:44:46.187Z,21.45
2022-08-19T05:47:16.940Z,20.40
2022-08-19T05:49:47.996Z,20.33
2022-08-19T05:52:18.864Z,21.55
2022-08-19T05:54:52.067Z,61.70
2022-08-19T05:57:22.194Z,38.30
2022-08-19T05:59:58.048Z,22.65
2022-08-19T06:02:29.580Z,19.10
2022-08-19T06:05:02.538Z,25.70
2022-08-19T06:07:32.607Z,23.30
2022-08-19T06:10:02.690Z,23.70
2022-08-19T06:12:36.050Z,23.75
2022-08-19T06:15:10.923Z,24.33
2022-08-19T06:17:42.740Z,28.25
2022-08-19T06:20:15.343Z,17.00
2022-08-19T06:22:47.499Z,27.88
2022-08-19T06:25:18.131Z,17.67
2022-08-19T06:28:13.502Z,18.13
2022-08-19T06:30:39.704Z,20.65
2022-08-19T06:33:09.631Z,15.98
2022-08-19T06:35:42.120Z,21.63
2022-08-19T06:38:12.315Z,20.17
2022-08-19T06:40:45.298Z,16.10
2022-08-19T06:43:16.945Z,13.60
2022-08-19T06:45:53.599Z,16.15
2022-08-19T06:48:23.834Z,18.40
2022-08-19T06:50:56.070Z,17.33
2022-08-19T06:53:26.182Z,16.55
2022-08-19T06:56:03.227Z,17.30
2022-08-19T06:58:34.001Z,16.67
2022-08-19T07:01:09.101Z,25.25
2022-08-19T07:03:40.776Z,24.60
2022-08-19T07:06:39.427Z,21.30
2022-08-19T07:09:07.993Z,19.33
2022-08-19T07:11:38.514Z,16.30
2022-08-19T07:14:18.899Z,21.40
2022-08-19T07:16:53.299Z,16.17
2022-08-19T07:19:25.552Z,18.88
2022-08-19T07:21:56.528Z,18.77
2022-08-19T07:24:28.528Z,21.15
2022-08-19T07:27:06.806Z,18.88
2022-08-19T07:29:46.916Z,17.42
2022-08-19T07:32:28.034Z,17.85
2022-08-19T07:34:58.412Z,18.73
2022-08-19T07:37:33.075Z,18.70
2022-08-19T07:40:04.076Z,20.63
2022-08-19T07:42:33.989Z,21.25
2022-08-19T07:45:04.596Z,22.95
2022-08-19T07:47:48.810Z,17.80
2022-08-19T07:50:22.687Z,24.75
2022-08-19T07:52:52.771Z,19.13
2022-08-19T07:55:42.352Z,16.95
2022-08-19T07:58:15.850Z,24.85
2022-08-19T08:00:47.222Z,20.27
2022-08-19T08:03:21.130Z,18.25
2022-08-19T08:06:08.685Z,25.25
2022-08-19T08:09:01.207Z,16.63
2022-08-19T08:11:31.344Z,15.63
2022-08-19T08:14:04.602Z,22.70
2022-08-19T08:16:39.537Z,22.33
2022-08-19T08:19:25.727Z,20.17
2022-08-19T08:21:57.523Z,18.85
2022-08-19T08:24:29.134Z,15.80
2022-08-19T08:27:01.266Z,17.67
2022-08-19T08:29:34.758Z,17.40
2022-08-19T08:32:13.942Z,18.13
2022-08-19T08:34:47.453Z,20.92
2022-08-19T08:37:23.151Z,17.75
2022-08-19T08:39:53.094Z,18.55
2022-08-19T08:42:29.471Z,17.60
2022-08-19T08:45:02.283Z,24.75
2022-08-19T08:47:37.223Z,18.23
2022-08-19T08:50:15.663Z,21.90
2022-08-19T08:52:49.403Z,16.58
2022-08-19T08:57:55.847Z,18.75
2022-08-19T09:00:29.933Z,15.70
2022-08-19T09:03:02.024Z,17.42
2022-08-19T09:05:48.436Z,18.00
2022-08-19T09:08:28.410Z,17.00
2022-08-19T09:10:59.433Z,16.33
2022-08-19T09:13:38.812Z,16.20
2022-08-19T09:16:13.978Z,16.45
2022-08-19T09:18:46.966Z,16.88
2022-08-19T09:21:20.045Z,17.42
2022-08-19T09:23:52.168Z,21.40
2022-08-19T09:26:24.466Z,33.63
2022-08-19T09:29:14.836Z,32.95
2022-08-19T09:31:44.745Z,20.88
2022-08-19T09:34:21.367Z,20.42
2022-08-19T09:36:54.708Z,15.35
2022-08-19T09:39:24.956Z,17.17
2022-08-19T09:42:16.386Z,16.08
2022-08-19T09:44:50.220Z,15.85
2022-08-19T09:47:20.134Z,12.98
2022-08-19T09:49:53.070Z,15.73
2022-08-19T09:52:24.292Z,12.85
2022-08-19T09:54:55.170Z,14.88
2022-08-19T09:57:25.043Z,19.40
2022-08-19T09:59:55.589Z,14.35
2022-08-19T10:02:25.865Z,14.80
2022-08-19T10:05:16.742Z,16.33
2022-08-19T10:07:54.477Z,15.02
2022-08-19T10:10:26.828Z,14.07
2022-08-19T10:12:57.426Z,15.35
2022-08-19T10:15:29.216Z,16.45
2022-08-19T10:18:00.840Z,15.77
2022-08-19T10:20:31.739Z,42.80
2022-08-19T10:23:03.120Z,31.40
2022-08-19T10:25:36.066Z,33.22
2022-08-19T10:28:10.656Z,17.67
2022-08-19T10:30:42.441Z,26.10
2022-08-19T10:33:12.332Z,19.83
2022-08-19T10:35:56.773Z,16.77
2022-08-19T10:38:31.820Z,14.65
2022-08-19T10:41:09.628Z,14.43
2022-08-19T10:43:40.913Z,15.75
2022-08-19T10:46:16.696Z,16.63
2022-08-19T10:48:47.416Z,13.80
2022-08-19T10:51:35.487Z,15.15
2022-08-19T10:54:06.999Z,13.93
2022-08-19T10:56:53.641Z,14.93
2022-08-19T10:59:31.419Z,16.42
2022-08-19T11:02:06.135Z,14.73
2022-08-19T11:04:36.076Z,16.60
2022-08-19T11:07:07.108Z,19.00
2022-08-19T11:09:42.954Z,15.77
2022-08-19T11:12:14.701Z,18.05
2022-08-19T11:14:45.186Z,16.33
2022-08-19T11:17:16.431Z,16.60
2022-08-19T11:19:46.788Z,14.65
2022-08-19T11:22:16.759Z,14.43
2022-08-19T11:24:50.838Z,17.05
2022-08-19T11:27:20.753Z,14.43
2022-08-19T11:29:50.809Z,15.63
2022-08-19T11:32:20.835Z,18.48
2022-08-19T11:34:50.832Z,14.88
2022-08-19T11:37:20.877Z,15.65
2022-08-19T11:39:53.517Z,15.18
2022-08-19T11:42:41.374Z,15.05
2022-08-19T11:45:11.949Z,14.57
2022-08-19T11:47:41.916Z,15.70
2022-08-19T11:50:12.125Z,19.73
2022-08-19T11:52:46.022Z,20.63
2022-08-19T11:55:17.716Z,18.08
2022-08-19T11:57:47.901Z,17.13
2022-08-19T12:00:18.459Z,16.50
2022-08-19T12:02:48.667Z,15.27
2022-08-19T12:05:18.862Z,16.55
2022-08-19T12:07:49.067Z,15.05
2022-08-19T12:10:24.540Z,14.10
2022-08-19T12:12:58.800Z,15.10
2022-08-19T12:15:37.132Z,14.23
2022-08-19T12:18:08.174Z,13.55
2022-08-19T12:20:40.597Z,13.48
2022-08-19T12:23:11.358Z,14.33
2022-08-19T12:25:49.381Z,15.10
2022-08-19T12:28:20.091Z,15.38
2022-08-19T12:30:52.322Z,13.93
2022-08-19T12:33:25.293Z,16.55
2022-08-19T12:35:55.726Z,16.05
2022-08-19T12:38:25.583Z,13.88
2022-08-19T12:41:00.203Z,13.45
2022-08-19T12:43:31.401Z,14.68
2022-08-19T12:46:01.372Z,16.13
2022-08-19T12:48:33.615Z,15.02
2022-08-19T12:51:08.941Z,13.57
2022-08-19T12:53:39.252Z,14.60
2022-08-19T12:56:15.345Z,12.30
2022-08-19T12:58:48.822Z,16.10
2022-08-19T13:01:22.005Z,13.88
2022-08-19T13:03:54.422Z,13.27
2022-08-19T13:06:24.231Z,13.57
2022-08-19T13:08:59.015Z,15.50
2022-08-19T13:11:33.439Z,13.20
2022-08-19T13:14:05.927Z,15.57
2022-08-19T13:16:36.418Z,14.93
2022-08-19T13:19:06.896Z,13.85
2022-08-19T13:21:37.272Z,13.15
2022-08-19T13:24:07.511Z,13.80
2022-08-19T13:26:38.684Z,13.55
2022-08-19T13:29:26.327Z,12.88
2022-08-19T13:32:13.724Z,11.38
2022-08-19T13:34:48.803Z,13.45
2022-08-19T13:37:38.625Z,13.45
2022-08-19T13:40:12.587Z,25.55
2022-08-19T13:42:44.749Z,26.23
2022-08-19T13:45:16.151Z,31.02
2022-08-19T13:47:48.230Z,18.65
2022-08-19T13:50:20.533Z,16.85
2022-08-19T13:52:50.820Z,21.63
2022-08-19T13:55:24.885Z,21.95
2022-08-19T13:57:58.081Z,10.70
2022-08-19T14:00:31.836Z,11.77
2022-08-19T14:03:04.313Z,13.15
2022-08-19T14:05:38.258Z,9.82
2022-08-19T14:08:08.087Z,9.68
2022-08-19T14:10:38.132Z,8.45
2022-08-19T14:13:10.198Z,9.02
2022-08-19T14:15:40.873Z,35.58
2022-08-19T14:18:10.751Z,51.17
2022-08-19T14:20:40.858Z,56.80
2022-08-19T14:23:11.748Z,61.40
2022-08-19T14:25:42.027Z,14.18
2022-08-19T14:28:13.439Z,13.48
2022-08-19T14:30:45.519Z,13.43
2022-08-19T14:33:15.427Z,20.95
2022-08-19T14:35:45.713Z,20.35
2022-08-19T14:38:18.616Z,10.45
2022-08-19T14:40:58.229Z,11.50
2022-08-19T14:43:29.452Z,10.73
2022-08-19T14:45:59.339Z,26.80
2022-08-19T14:48:29.952Z,15.40
2022-08-19T14:50:59.857Z,36.45
2022-08-19T14:53:29.593Z,37.33
2022-08-19T14:55:59.836Z,45.35
2022-08-19T14:58:31.520Z,50.50
2022-08-19T15:01:01.910Z,46.88
2022-08-19T15:03:32.961Z,33.20
2022-08-19T15:06:04.573Z,21.80
2022-08-19T15:08:37.884Z,17.67
2022-08-19T15:11:11.686Z,20.38
2022-08-19T15:13:47.482Z,16.70
2022-08-19T15:16:19.178Z,14.27
2022-08-19T15:18:57.904Z,19.65
2022-08-19T15:21:29.248Z,18.70
2022-08-19T15:24:01.853Z,28.00
2022-08-19T15:26:33.701Z,14.90
2022-08-19T15:29:07.092Z,19.75
2022-08-19T15:31:38.216Z,9.38
2022-08-19T15:34:08.761Z,11.50
2022-08-19T15:36:39.252Z,17.25
2022-08-19T15:39:10.214Z,7.88
2022-08-19T15:41:41.175Z,10.10
2022-08-19T15:44:16.427Z,15.90
2022-08-19T15:46:47.807Z,16.08
2022-08-19T15:49:19.284Z,9.55
2022-08-19T15:51:51.890Z,9.50
2022-08-19T15:54:22.758Z,11.90
2022-08-19T15:57:07.413Z,15.13
2022-08-19T15:59:57.151Z,13.13
2022-08-19T16:02:49.024Z,10.48
2022-08-19T16:05:44.231Z,10.55
2022-08-19T16:08:15.483Z,13.07
2022-08-19T16:10:45.461Z,13.02
2022-08-19T16:13:15.810Z,16.20
2022-08-19T16:15:47.704Z,13.57
2022-08-19T16:18:17.961Z,14.40
2022-08-19T16:20:48.591Z,10.27
2022-08-19T16:23:18.795Z,14.38
2022-08-19T16:25:48.713Z,9.93
2022-08-19T16:28:19.468Z,10.80
2022-08-19T16:30:51.047Z,14.20
2022-08-19T16:33:22.966Z,16.55
2022-08-19T16:36:07.358Z,10.23
2022-08-19T16:38:38.746Z,35.63
2022-08-19T16:41:09.448Z,12.27
2022-08-19T16:43:40.092Z,15.77
2022-08-19T16:46:11.449Z,12.77
2022-08-19T16:48:46.330Z,14.43
2022-08-19T16:51:16.791Z,15.80
2022-08-19T16:53:47.108Z,16.20
2022-08-19T16:56:17.178Z,14.88
2022-08-19T16:58:47.080Z,12.95
2022-08-19T17:01:19.381Z,17.33
2022-08-19T17:03:50.540Z,15.45
2022-08-19T17:06:25.040Z,17.27
2022-08-19T17:09:01.829Z,12.82
2022-08-19T17:11:33.019Z,17.65
2022-08-19T17:14:05.455Z,16.92
2022-08-19T17:16:38.236Z,21.58
2022-08-19T17:19:09.809Z,13.43
2022-08-19T17:21:40.691Z,12.75
2022-08-19T17:24:12.303Z,11.90
2022-08-19T17:26:42.453Z,14.68
2022-08-19T17:29:12.594Z,20.65
2022-08-19T17:31:44.543Z,19.77
2022-08-19T17:34:14.707Z,13.07
2022-08-19T17:36:44.526Z,17.50
2022-08-19T17:39:14.601Z,14.55
2022-08-19T17:41:44.678Z,16.92
2022-08-19T17:44:14.682Z,12.10
2022-08-19T17:46:46.842Z,13.77
2022-08-19T17:49:17.995Z,18.90
2022-08-19T17:51:49.615Z,20.20
2022-08-19T17:54:20.737Z,17.67
2022-08-19T17:56:50.579Z,15.93
2022-08-19T17:59:20.757Z,14.32
2022-08-19T18:01:57.412Z,13.48
2022-08-19T18:04:29.878Z,12.70
2022-08-19T18:07:01.072Z,20.42
2022-08-19T18:09:41.461Z,14.43
2022-08-19T18:12:15.714Z,13.98
2022-08-19T18:14:46.613Z,15.95
2022-08-19T18:17:19.362Z,19.58
2022-08-19T18:19:49.283Z,25.77
2022-08-19T18:22:26.750Z,17.63
2022-08-19T18:24:57.532Z,20.45
2022-08-19T18:27:28.849Z,18.08
2022-08-19T18:29:59.798Z,20.58
2022-08-19T18:32:33.461Z,16.58
2022-08-19T18:35:06.421Z,14.40
2022-08-19T18:37:36.696Z,11.10
2022-08-19T18:40:25.221Z,12.23
2022-08-19T18:43:13.046Z,15.95
2022-08-19T18:46:02.526Z,13.70
2022-08-19T18:48:51.080Z,12.70
2022-08-19T18:51:23.285Z,12.55
2022-08-19T18:53:57.324Z,11.50
2022-08-19T18:56:31.208Z,9.35
2022-08-19T18:59:01.920Z,12.35
2022-08-19T19:01:35.544Z,10.90
2022-08-19T19:04:10.667Z,10.63
2022-08-19T19:06:43.443Z,11.80
2022-08-19T19:09:16.442Z,9.93
2022-08-19T19:14:45.651Z,12.18
2022-08-19T19:17:14.167Z,16.83
2022-08-19T19:19:45.895Z,13.32
2022-08-19T19:22:20.207Z,13.70
2022-08-19T19:24:50.826Z,13.25
2022-08-19T19:27:21.457Z,21.80
2022-08-19T19:29:52.811Z,18.00
2022-08-19T19:32:26.158Z,14.85
2022-08-19T19:34:57.933Z,12.57
2022-08-19T19:37:28.960Z,13.60
2022-08-19T19:39:58.800Z,13.45
2022-08-19T19:42:28.856Z,13.00
2022-08-19T19:45:00.439Z,14.50
2022-08-19T19:47:31.046Z,17.95
2022-08-19T19:50:18.102Z,14.57
2022-08-19T19:52:48.123Z,12.50
2022-08-19T19:55:19.096Z,11.07
2022-08-19T19:57:49.836Z,14.00
2022-08-19T20:00:20.987Z,13.70
2022-08-19T20:02:51.407Z,16.42
2022-08-19T20:05:24.169Z,17.55
2022-08-19T20:08:12.426Z,13.10
2022-08-19T20:10:44.014Z,16.95
2022-08-19T20:13:15.585Z,16.73
2022-08-19T20:15:46.021Z,14.13
2022-08-19T20:18:15.944Z,11.20
2022-08-19T20:20:50.175Z,12.68
2022-08-19T20:23:20.623Z,20.35
2022-08-19T20:25:51.915Z,12.45
2022-08-19T20:28:23.050Z,11.75
2022-08-19T20:30:53.218Z,12.98
2022-08-19T20:33:23.228Z,11.95
2022-08-19T20:35:54.593Z,11.90
2022-08-19T20:38:24.564Z,10.00
2022-08-19T20:40:54.657Z,11.40
2022-08-19T20:43:25.772Z,18.15
2022-08-19T20:45:55.913Z,13.38
2022-08-19T20:48:25.929Z,18.05
2022-08-19T20:50:58.848Z,14.10
2022-08-19T20:53:28.914Z,10.98
2022-08-19T20:56:00.069Z,13.23
2022-08-19T20:58:30.342Z,10.63
2022-08-19T21:01:02.780Z,11.73
2022-08-19T21:03:42.901Z,16.67
2022-08-19T21:06:15.584Z,12.02
2022-08-19T21:08:45.531Z,12.75
2022-08-19T21:11:20.592Z,15.00
2022-08-19T21:13:51.251Z,16.50
2022-08-19T21:16:21.679Z,15.02
2022-08-19T21:18:51.587Z,19.52
2022-08-19T21:21:22.875Z,17.67
2022-08-19T21:23:52.996Z,16.88
2022-08-19T21:26:24.424Z,11.68
2022-08-19T21:28:54.656Z,12.43
2022-08-19T21:31:24.658Z,15.30
2022-08-19T21:33:54.828Z,15.32
2022-08-19T21:36:26.182Z,21.70
2022-08-19T21:38:56.448Z,16.75
2022-08-19T21:41:26.385Z,13.75
2022-08-19T21:43:56.380Z,13.15
2022-08-19T21:46:26.289Z,17.00
2022-08-19T21:48:56.490Z,11.05
2022-08-19T21:51:27.932Z,13.68
2022-08-19T21:53:58.182Z,12.32
2022-08-19T21:56:28.096Z,14.43
2022-08-19T21:58:59.244Z,15.05
2022-08-19T22:01:29.155Z,17.27
2022-08-19T22:03:59.058Z,16.77
2022-08-19T22:06:30.410Z,11.23
2022-08-19T22:09:00.499Z,14.18
2022-08-19T22:11:31.854Z,13.20
2022-08-19T22:14:04.319Z,10.80
2022-08-19T22:16:34.686Z,17.27
2022-08-19T22:19:04.922Z,19.70
2022-08-19T22:21:40.741Z,19.75
2022-08-19T22:24:11.281Z,10.85
2022-08-19T22:26:41.173Z,11.93
2022-08-19T22:29:15.652Z,13.98
2022-08-19T22:31:54.319Z,12.82
2022-08-19T22:34:25.948Z,16.45
2022-08-19T22:36:57.439Z,11.07
2022-08-19T22:39:27.335Z,13.48
2022-08-19T22:41:57.196Z,17.30
2022-08-19T22:44:27.787Z,16.08
2022-08-19T22:46:57.897Z,18.98
2022-08-19T22:49:27.841Z,13.55
2022-08-19T22:52:18.399Z,13.32
2022-08-19T22:54:48.755Z,15.85
2022-08-19T22:57:20.390Z,16.05
2022-08-19T22:59:52.438Z,13.35
2022-08-19T23:02:24.814Z,13.48
2022-08-19T23:04:55.014Z,24.55
2022-08-19T23:07:26.269Z,11.70
2022-08-19T23:09:56.692Z,12.45
2022-08-19T23:12:30.622Z,13.40
2022-08-19T23:15:03.073Z,11.10
2022-08-19T23:17:33.685Z,16.75
2022-08-19T23:20:05.027Z,11.90
2022-08-19T23:22:39.423Z,15.68
2022-08-19T23:25:14.173Z,15.27
2022-08-19T23:28:01.485Z,14.00
2022-08-19T23:30:33.510Z,13.88
2022-08-19T23:33:12.321Z,13.00
2022-08-19T23:35:43.019Z,12.63
2022-08-19T23:38:14.291Z,14.45
2022-08-19T23:40:44.489Z,11.95
2022-08-19T23:43:20.419Z,11.68
2022-08-19T23:45:57.424Z,14.52
2022-08-19T23:48:28.516Z,11.73
2022-08-19T23:50:58.731Z,11.18
2022-08-19T23:53:30.326Z,12.60
2022-08-19T23:56:00.788Z,18.60
2022-08-19T23:58:31.956Z,13.07
